createdAt,value
2017-08-26T00:02:00.394Z,99291
2017-08-26T00:04:06.087Z,99292
2017-08-26T00:06:12.551Z,99296
2017-08-26T00:08:19.827Z,99294
2017-08-26T00:10:26.254Z,99291
2017-08-26T00:12:31.785Z,99295
2017-08-26T00:14:38.412Z,99289
2017-08-26T00:16:48.182Z,99285
2017-08-26T00:18:54.082Z,99288
2017-08-26T00:21:01.967Z,99289
2017-08-26T00:23:07.540Z,99292
2017-08-26T00:25:13.262Z,99295
2017-08-26T00:27:19.278Z,99295
2017-08-26T00:29:25.236Z,99290
2017-08-26T00:31:31.566Z,99291
2017-08-26T00:33:37.580Z,99290
2017-08-26T00:35:45.418Z,99295
2017-08-26T00:37:51.637Z,99285
2017-08-26T00:39:58.684Z,99276
2017-08-26T00:42:04.332Z,99280
2017-08-26T00:44:10.947Z,99287
2017-08-26T00:46:17.086Z,99288
2017-08-26T00:48:23.410Z,99288
2017-08-26T00:50:29.479Z,99287
2017-08-26T00:52:35.935Z,99289
2017-08-26T00:54:43.649Z,99286
2017-08-26T00:56:52.012Z,99287
2017-08-26T00:58:58.541Z,99283
2017-08-26T01:01:05.840Z,99276
2017-08-26T01:03:11.888Z,99277
2017-08-26T01:05:18.007Z,99275
2017-08-26T01:07:28.156Z,99269
2017-08-26T01:09:34.326Z,99271
2017-08-26T01:11:41.264Z,99278
2017-08-26T01:13:51.114Z,99280
2017-08-26T01:16:00.775Z,99279
2017-08-26T01:18:07.792Z,99271
2017-08-26T01:20:13.330Z,99272
2017-08-26T01:22:20.086Z,99276
2017-08-26T01:24:26.508Z,99274
2017-08-26T01:26:32.968Z,99283
2017-08-26T01:28:39.188Z,99290
2017-08-26T01:30:49.182Z,99293
2017-08-26T01:32:56.022Z,99283
2017-08-26T01:35:02.284Z,99279
2017-08-26T01:37:09.100Z,99283
2017-08-26T01:39:15.149Z,99295
2017-08-26T01:41:20.911Z,99308
2017-08-26T01:43:27.245Z,99325
2017-08-26T01:45:33.449Z,99337
2017-08-26T01:47:39.861Z,99336
2017-08-26T01:49:46.061Z,99326
2017-08-26T01:51:52.692Z,99321
2017-08-26T01:54:00.507Z,99316
2017-08-26T01:56:07.594Z,99319
2017-08-26T01:58:14.540Z,99318
2017-08-26T02:00:20.721Z,99318
2017-08-26T02:02:27.543Z,99324
2017-08-26T02:04:34.833Z,99324
2017-08-26T02:06:43.107Z,99317
2017-08-26T02:08:51.915Z,99298
2017-08-26T02:10:57.685Z,99286
2017-08-26T02:13:06.435Z,99276
2017-08-26T02:15:14.181Z,99286
2017-08-26T02:17:21.125Z,99297
2017-08-26T02:19:27.344Z,99306
2017-08-26T02:21:36.747Z,99316
2017-08-26T02:23:47.044Z,99328
2017-08-26T02:25:55.131Z,99346
2017-08-26T02:28:02.728Z,99366
2017-08-26T02:30:09.396Z,99380
2017-08-26T02:32:16.216Z,99409
2017-08-26T02:34:22.041Z,99425
2017-08-26T02:36:27.675Z,99417
2017-08-26T02:38:33.883Z,99391
2017-08-26T02:40:41.469Z,99347
2017-08-26T02:42:50.929Z,99311
2017-08-26T02:45:02.576Z,99317
2017-08-26T02:47:09.061Z,99319
2017-08-26T02:49:14.824Z,99300
2017-08-26T02:51:21.203Z,99258
2017-08-26T02:53:27.385Z,99265
2017-08-26T02:55:34.936Z,99272
2017-08-26T02:57:47.083Z,99258
2017-08-26T02:59:55.173Z,99249
2017-08-26T03:02:03.379Z,99219
2017-08-26T03:04:10.363Z,99208
2017-08-26T03:06:16.981Z,99228
2017-08-26T03:08:24.142Z,99239
2017-08-26T03:10:31.123Z,99228
2017-08-26T03:12:39.407Z,99200
2017-08-26T03:14:48.149Z,99195
2017-08-26T03:16:55.353Z,99207
2017-08-26T03:19:02.586Z,99213
2017-08-26T03:21:09.608Z,99234
2017-08-26T03:23:15.183Z,99214
2017-08-26T03:25:21.276Z,99191
2017-08-26T03:27:29.656Z,99186
2017-08-26T03:29:35.925Z,99194
2017-08-26T03:31:42.726Z,99185
2017-08-26T03:33:50.745Z,99186
2017-08-26T03:36:00.320Z,99197
2017-08-26T03:38:08.194Z,99182
2017-08-26T03:40:15.180Z,99171
2017-08-26T03:42:21.775Z,99179
2017-08-26T03:44:28.195Z,99189
2017-08-26T03:46:35.087Z,99198
2017-08-26T03:48:41.114Z,99203
2017-08-26T03:50:51.700Z,99212
2017-08-26T03:53:00.667Z,99206
2017-08-26T03:55:08.484Z,99203
2017-08-26T03:57:14.333Z,99213
2017-08-26T03:59:20.345Z,99215
2017-08-26T04:01:26.323Z,99208
2017-08-26T04:03:34.274Z,99221
2017-08-26T04:05:43.048Z,99241
2017-08-26T04:07:51.726Z,99280
2017-08-26T04:10:02.164Z,99322
2017-08-26T04:12:07.583Z,99365
2017-08-26T04:14:14.632Z,99376
2017-08-26T04:16:20.926Z,99373
2017-08-26T04:18:27.039Z,99360
2017-08-26T04:20:33.287Z,99309
2017-08-26T04:22:39.961Z,99283
2017-08-26T04:24:50.267Z,99268
2017-08-26T04:26:59.368Z,99253
2017-08-26T04:29:06.012Z,99207
2017-08-26T04:31:11.805Z,99179
2017-08-26T04:33:21.494Z,99157
2017-08-26T04:35:29.029Z,99148
2017-08-26T04:37:36.454Z,99161
2017-08-26T04:39:46.209Z,99176
2017-08-26T04:41:53.356Z,99181
2017-08-26T04:44:04.639Z,99188
2017-08-26T04:46:12.161Z,99194
2017-08-26T04:48:19.120Z,99184
2017-08-26T04:50:25.749Z,99163
2017-08-26T04:52:31.909Z,99166
2017-08-26T04:54:37.783Z,99192
2017-08-26T04:56:45.174Z,99192
2017-08-26T04:58:53.816Z,99188
2017-08-26T05:01:03.438Z,99184
2017-08-26T05:03:09.408Z,99185
2017-08-26T05:05:18.394Z,99193
2017-08-26T05:07:24.809Z,99202
2017-08-26T05:09:30.724Z,99204
2017-08-26T05:11:36.473Z,99207
2017-08-26T05:13:46.427Z,99211
2017-08-26T05:15:55.354Z,99211
2017-08-26T05:18:00.964Z,99211
2017-08-26T05:20:10.143Z,99210
2017-08-26T05:22:17.176Z,99202
2017-08-26T05:24:23.475Z,99203
2017-08-26T05:26:29.939Z,99212
2017-08-26T05:28:36.019Z,99206
2017-08-26T05:30:43.200Z,99209
2017-08-26T05:32:52.508Z,99221
2017-08-26T05:35:00.646Z,99225
2017-08-26T05:37:08.227Z,99223
2017-08-26T05:39:15.519Z,99225
2017-08-26T05:41:22.069Z,99225
2017-08-26T05:43:31.703Z,99233
2017-08-26T05:45:38.304Z,99241
2017-08-26T05:47:46.306Z,99255
2017-08-26T05:49:55.909Z,99258
2017-08-26T05:52:05.325Z,99266
2017-08-26T05:54:12.414Z,99263
2017-08-26T05:56:18.559Z,99269
2017-08-26T05:58:24.906Z,99271
2017-08-26T06:00:31.923Z,99269
2017-08-26T06:02:38.339Z,99282
2017-08-26T06:04:50.231Z,99285
2017-08-26T06:07:00.253Z,99300
2017-08-26T06:09:06.423Z,99324
2017-08-26T06:11:12.191Z,99336
2017-08-26T06:13:19.400Z,99295
2017-08-26T06:15:26.253Z,99280
2017-08-26T06:17:31.815Z,99276
2017-08-26T06:19:40.117Z,99264
2017-08-26T06:21:47.997Z,99267
2017-08-26T06:23:59.554Z,99275
2017-08-26T06:26:06.218Z,99267
2017-08-26T06:28:12.252Z,99277
2017-08-26T06:30:21.888Z,99277
2017-08-26T06:32:27.916Z,99272
2017-08-26T06:34:34.968Z,99286
2017-08-26T06:36:42.469Z,99291
2017-08-26T06:38:52.242Z,99306
2017-08-26T06:41:03.865Z,99304
2017-08-26T06:43:18.140Z,99305
2017-08-26T06:45:25.131Z,99302
2017-08-26T06:47:32.047Z,99301
2017-08-26T06:49:38.988Z,99290
2017-08-26T06:51:48.534Z,99284
2017-08-26T06:53:58.105Z,99274
2017-08-26T06:56:05.577Z,99258
2017-08-26T06:58:12.475Z,99251
2017-08-26T07:00:19.895Z,99245
2017-08-26T07:02:26.168Z,99229
2017-08-26T07:04:32.131Z,99215
2017-08-26T07:06:39.486Z,99192
2017-08-26T07:08:49.236Z,99169
2017-08-26T07:10:58.348Z,99155
2017-08-26T07:13:07.355Z,99149
2017-08-26T07:15:14.993Z,99148
2017-08-26T07:17:23.662Z,99182
2017-08-26T07:19:30.141Z,99215
2017-08-26T07:21:38.421Z,99234
2017-08-26T07:23:50.917Z,99244
2017-08-26T07:25:58.528Z,99234
2017-08-26T07:28:07.031Z,99218
2017-08-26T07:30:14.443Z,99207
2017-08-26T07:32:23.809Z,99212
2017-08-26T07:34:33.813Z,99227
2017-08-26T07:36:41.249Z,99234
2017-08-26T07:38:52.072Z,99236
2017-08-26T07:41:05.807Z,99230
2017-08-26T07:43:15.257Z,99238
2017-08-26T07:45:26.162Z,99237
2017-08-26T07:47:31.898Z,99227
2017-08-26T07:49:37.540Z,99225
2017-08-26T07:51:50.029Z,99214
2017-08-26T07:54:01.340Z,99225
2017-08-26T07:56:08.942Z,99240
2017-08-26T07:58:15.202Z,99233
2017-08-26T08:00:23.647Z,99233
2017-08-26T08:02:29.813Z,99233
2017-08-26T08:04:36.230Z,99225
2017-08-26T08:06:47.799Z,99234
2017-08-26T08:08:56.852Z,99235
2017-08-26T08:11:04.747Z,99241
2017-08-26T08:13:10.276Z,99223
2017-08-26T08:15:17.045Z,99210
2017-08-26T08:17:23.897Z,99225
2017-08-26T08:19:29.525Z,99223
2017-08-26T08:21:36.560Z,99219
2017-08-26T08:23:47.805Z,99241
2017-08-26T08:25:57.948Z,99235
2017-08-26T08:28:04.653Z,99241
2017-08-26T08:30:11.984Z,99231
2017-08-26T08:32:17.655Z,99244
2017-08-26T08:34:24.946Z,99233
2017-08-26T08:36:30.957Z,99234
2017-08-26T08:38:36.712Z,99230
2017-08-26T08:40:45.096Z,99225
2017-08-26T08:42:53.846Z,99217
2017-08-26T08:45:00.665Z,99211
2017-08-26T08:47:10.513Z,99199
2017-08-26T08:49:16.347Z,99192
2017-08-26T08:51:22.034Z,99196
2017-08-26T08:53:30.203Z,99200
2017-08-26T08:55:38.234Z,99201
2017-08-26T08:57:50.441Z,99199
2017-08-26T08:59:59.924Z,99203
2017-08-26T09:02:05.599Z,99204
2017-08-26T09:04:11.345Z,99204
2017-08-26T09:06:20.099Z,99203
2017-08-26T09:08:26.939Z,99201
2017-08-26T09:10:32.346Z,99196
2017-08-26T09:12:38.276Z,99199
2017-08-26T09:14:43.951Z,99199
2017-08-26T09:16:49.290Z,99198
2017-08-26T09:18:56.947Z,99200
2017-08-26T09:21:03.029Z,99201
2017-08-26T09:23:08.835Z,99197
2017-08-26T09:25:14.816Z,99188
2017-08-26T09:27:20.429Z,99193
2017-08-26T09:29:26.069Z,99194
2017-08-26T09:31:31.979Z,99192
2017-08-26T09:33:38.016Z,99190
2017-08-26T09:35:46.405Z,99192
2017-08-26T09:37:54.006Z,99185
2017-08-26T09:40:01.634Z,99190
2017-08-26T09:42:07.688Z,99188
2017-08-26T09:44:14.815Z,99187
2017-08-26T09:46:20.668Z,99189
2017-08-26T09:48:26.255Z,99179
2017-08-26T09:50:32.264Z,99174
2017-08-26T09:52:38.055Z,99177
2017-08-26T09:54:44.132Z,99178
2017-08-26T09:56:50.135Z,99174
2017-08-26T09:58:58.196Z,99171
2017-08-26T10:01:06.742Z,99169
2017-08-26T10:03:13.295Z,99173
2017-08-26T10:05:20.292Z,99171
2017-08-26T10:07:29.388Z,99174
2017-08-26T10:09:35.527Z,99173
2017-08-26T10:11:46.147Z,99172
2017-08-26T10:13:53.860Z,99168
2017-08-26T10:16:02.328Z,99172
2017-08-26T10:18:08.790Z,99164
2017-08-26T10:20:14.756Z,99163
2017-08-26T10:22:20.324Z,99157
2017-08-26T10:24:25.971Z,99151
2017-08-26T10:26:32.004Z,99150
2017-08-26T10:28:37.646Z,99147
2017-08-26T10:30:45.744Z,99148
2017-08-26T10:32:52.883Z,99149
2017-08-26T10:34:58.870Z,99144
2017-08-26T10:37:09.258Z,99142
2017-08-26T10:39:15.815Z,99135
2017-08-26T10:41:21.953Z,99135
2017-08-26T10:43:28.119Z,99131
2017-08-26T10:45:34.185Z,99126
2017-08-26T10:47:40.232Z,99127
2017-08-26T10:49:50.860Z,99124
2017-08-26T10:51:59.091Z,99123
2017-08-26T10:54:04.754Z,99119
2017-08-26T10:56:10.452Z,99111
2017-08-26T10:58:16.717Z,99110
2017-08-26T11:00:22.601Z,99112
2017-08-26T11:02:28.283Z,99115
2017-08-26T11:04:34.563Z,99108
2017-08-26T11:06:42.467Z,99107
2017-08-26T11:08:49.757Z,99098
2017-08-26T11:10:57.056Z,99098
2017-08-26T11:13:02.733Z,99097
2017-08-26T11:15:08.856Z,99093
2017-08-26T11:18:17.067Z,99096
2017-08-26T11:20:23.142Z,99098
2017-08-26T11:22:29.340Z,99096
2017-08-26T11:24:35.278Z,99088
2017-08-26T11:26:47.848Z,99081
2017-08-26T11:28:54.850Z,99085
2017-08-26T11:31:02.156Z,99081
2017-08-26T11:33:07.600Z,99084
2017-08-26T11:35:13.432Z,99083
2017-08-26T11:37:19.899Z,99079
2017-08-26T11:39:25.565Z,99076
2017-08-26T11:41:32.397Z,99076
2017-08-26T11:43:38.201Z,99070
2017-08-26T11:45:45.857Z,99068
2017-08-26T11:47:52.340Z,99067
2017-08-26T11:50:00.727Z,99068
2017-08-26T11:52:06.874Z,99070
2017-08-26T11:54:12.598Z,99072
2017-08-26T11:56:18.236Z,99065
2017-08-26T11:58:24.264Z,99065
2017-08-26T12:00:29.952Z,99069
2017-08-26T12:02:35.631Z,99063
2017-08-26T12:04:44.179Z,99070
2017-08-26T12:06:51.135Z,99057
2017-08-26T12:08:56.968Z,99057
2017-08-26T12:11:05.479Z,99055
2017-08-26T12:13:11.695Z,99062
2017-08-26T12:15:17.569Z,99051
2017-08-26T12:17:23.637Z,99054
2017-08-26T12:19:29.526Z,99054
2017-08-26T12:21:35.239Z,99053
2017-08-26T12:23:41.734Z,99057
2017-08-26T12:25:51.009Z,99053
2017-08-26T12:28:00.677Z,99050
2017-08-26T12:30:08.104Z,99055
2017-08-26T12:32:15.022Z,99052
2017-08-26T12:34:20.693Z,99053
2017-08-26T12:36:36.028Z,99049
2017-08-26T12:38:53.213Z,99057
2017-08-26T12:41:25.829Z,99049
2017-08-26T12:43:46.679Z,99048
2017-08-26T12:46:04.920Z,99050
2017-08-26T12:48:45.869Z,99053
2017-08-26T13:32:19.438Z,99037
2017-08-26T13:34:38.511Z,99042
2017-08-26T13:37:21.096Z,99040
2017-08-26T13:39:37.697Z,99044
2017-08-26T13:41:49.439Z,99039
2017-08-26T13:43:58.086Z,99043
2017-08-26T13:46:12.355Z,99041
2017-08-26T13:48:21.097Z,99045
2017-08-26T13:50:29.011Z,99041
2017-08-26T13:52:35.971Z,99036
2017-08-26T13:54:48.693Z,99037
2017-08-26T13:56:55.723Z,99031
2017-08-26T13:59:03.882Z,99036
2017-08-26T14:01:09.581Z,99041
2017-08-26T14:03:15.308Z,99038
2017-08-26T14:05:21.199Z,99043
2017-08-26T14:07:26.802Z,99052
2017-08-26T14:09:32.495Z,99048
2017-08-26T14:11:38.821Z,99050
2017-08-26T14:13:49.442Z,99054
2017-08-26T14:16:00.592Z,99049
2017-08-26T14:18:06.992Z,99055
2017-08-26T14:20:13.182Z,99054
2017-08-26T14:22:19.753Z,99054
2017-08-26T14:24:26.896Z,99046
2017-08-26T14:26:33.057Z,99055
2017-08-26T14:28:42.150Z,99060
2017-08-26T14:30:52.836Z,99055
2017-08-26T14:33:00.160Z,99061
2017-08-26T14:35:05.852Z,99044
2017-08-26T14:37:11.638Z,99043
2017-08-26T14:39:17.468Z,99048
2017-08-26T14:41:23.190Z,99046
2017-08-26T14:43:29.344Z,99043
2017-08-26T14:45:36.926Z,99036
2017-08-26T14:47:44.306Z,99040
2017-08-26T14:49:51.826Z,99036
2017-08-26T14:51:57.403Z,99034
2017-08-26T14:54:03.179Z,99033
2017-08-26T14:56:09.104Z,99023
2017-08-26T14:58:16.071Z,99028
2017-08-26T15:00:21.902Z,99031
2017-08-26T15:02:27.512Z,99029
2017-08-26T15:04:33.126Z,99023
2017-08-26T15:06:38.816Z,99019
2017-08-26T15:08:47.672Z,99026
2017-08-26T15:10:54.461Z,99020
2017-08-26T15:13:05.292Z,99019
2017-08-26T15:15:11.376Z,99022
2017-08-26T15:17:16.993Z,99018
2017-08-26T15:19:22.571Z,99017
2017-08-26T15:21:28.412Z,99016
2017-08-26T15:23:34.108Z,99011
2017-08-26T15:25:43.465Z,99005
2017-08-26T15:27:52.928Z,99008
2017-08-26T15:30:00.924Z,99007
2017-08-26T15:32:06.572Z,99002
2017-08-26T15:34:12.362Z,99001
2017-08-26T15:36:18.654Z,98995
2017-08-26T15:38:24.241Z,98993
2017-08-26T15:40:30.343Z,98992
2017-08-26T15:42:37.338Z,98994
2017-08-26T15:44:46.374Z,99001
2017-08-26T15:46:54.291Z,99003
2017-08-26T15:49:03.456Z,99008
2017-08-26T15:51:09.108Z,99014
2017-08-26T15:53:15.076Z,99023
2017-08-26T15:55:20.758Z,99029
2017-08-26T15:57:26.438Z,99061
2017-08-26T15:59:34.780Z,99046
2017-08-26T16:01:44.210Z,99038
2017-08-26T16:03:57.355Z,99042
2017-08-26T16:06:04.890Z,99032
2017-08-26T16:08:15.248Z,99032
2017-08-26T16:10:25.091Z,99027
2017-08-26T16:12:32.006Z,99027
2017-08-26T16:14:37.996Z,99030
2017-08-26T16:16:45.085Z,99020
2017-08-26T16:20:11.844Z,99016
2017-08-26T16:22:17.880Z,99012
2017-08-26T16:24:44.094Z,99009
2017-08-26T16:26:57.934Z,99008
2017-08-26T16:29:15.795Z,99013
2017-08-26T16:31:23.298Z,99008
2017-08-26T16:33:30.073Z,99009
2017-08-26T16:35:36.778Z,99005
2017-08-26T16:37:43.088Z,99001
2017-08-26T16:39:50.762Z,98996
2017-08-26T16:41:59.585Z,99001
2017-08-26T16:44:06.214Z,98993
2017-08-26T16:46:17.094Z,98984
2017-08-26T16:48:23.786Z,98982
2017-08-26T16:50:30.696Z,98988
2017-08-26T16:52:39.872Z,98993
2017-08-26T16:54:48.337Z,98996
2017-08-26T16:56:54.465Z,99000
2017-08-26T16:59:00.239Z,99003
2017-08-26T17:01:05.587Z,99003
2017-08-26T17:03:11.046Z,99002
2017-08-26T17:05:16.788Z,99003
2017-08-26T17:07:22.693Z,98998
2017-08-26T17:09:28.591Z,98998
2017-08-26T17:11:34.192Z,98999
2017-08-26T17:13:40.528Z,98996
2017-08-26T17:15:49.594Z,98988
2017-08-26T17:17:57.014Z,98992
2017-08-26T17:20:02.781Z,98989
2017-08-26T17:22:08.739Z,98983
2017-08-26T17:24:14.417Z,98986
2017-08-26T17:26:20.271Z,98984
2017-08-26T17:28:26.393Z,98986
2017-08-26T17:30:32.194Z,98989
2017-08-26T17:32:38.362Z,98989
2017-08-26T17:34:48.457Z,98983
2017-08-26T17:36:55.677Z,98972
2017-08-26T17:39:05.417Z,98975
2017-08-26T17:41:12.385Z,98979
2017-08-26T17:43:18.331Z,98977
2017-08-26T17:45:23.921Z,98978
2017-08-26T17:47:30.446Z,98982
2017-08-26T17:49:36.251Z,98987
2017-08-26T17:51:42.431Z,98984
2017-08-26T17:53:51.600Z,98985
2017-08-26T17:55:59.347Z,98985
2017-08-26T17:58:04.999Z,98986
2017-08-26T18:00:12.232Z,98989
2017-08-26T18:02:17.962Z,98986
2017-08-26T18:04:23.734Z,98984
2017-08-26T18:06:30.073Z,98986
2017-08-26T18:10:58.084Z,98985
2017-08-26T18:13:05.627Z,98991
2017-08-26T18:15:11.701Z,98985
2017-08-26T18:17:17.596Z,98986
2017-08-26T18:19:23.515Z,98989
2017-08-26T18:21:29.437Z,98995
2017-08-26T18:23:35.643Z,99000
2017-08-26T18:26:08.470Z,98999
2017-08-26T18:28:18.469Z,98997
2017-08-26T18:31:31.365Z,99002
2017-08-26T18:33:48.316Z,99006
2017-08-26T18:35:59.458Z,99009
2017-08-26T18:38:37.685Z,99007
2017-08-26T18:40:51.341Z,99007
2017-08-26T18:43:01.202Z,99013
2017-08-26T18:45:07.242Z,99021
2017-08-26T18:47:13.071Z,99027
2017-08-26T18:49:18.750Z,99031
2017-08-26T18:51:24.882Z,99029
2017-08-26T18:53:31.012Z,99032
2017-08-26T18:55:36.849Z,99033
2017-08-26T18:57:45.032Z,99031
2017-08-26T18:59:51.920Z,99035
2017-08-26T19:02:00.332Z,99037
2017-08-26T19:04:08.654Z,99037
2017-08-26T19:06:29.446Z,99036
2017-08-26T19:08:39.006Z,99032
2017-08-26T19:10:50.308Z,99042
2017-08-26T19:12:58.130Z,99043
2017-08-26T19:15:06.765Z,99049
2017-08-26T19:17:14.408Z,99048
2017-08-26T19:19:22.080Z,99048
2017-08-26T19:21:28.400Z,99044
2017-08-26T19:23:35.736Z,99045
2017-08-26T19:25:48.589Z,99047
2017-08-26T19:27:57.122Z,99061
2017-08-26T19:30:07.651Z,99051
2017-08-26T19:32:14.197Z,99060
2017-08-26T19:34:20.940Z,99059
2017-08-26T19:36:28.177Z,99059
2017-08-26T19:38:35.998Z,99061
2017-08-26T19:40:43.580Z,99058
2017-08-26T19:42:52.900Z,99056
2017-08-26T19:45:00.344Z,99062
2017-08-26T19:47:06.271Z,99063
2017-08-26T19:49:12.016Z,99064
2017-08-26T19:51:17.888Z,99062
2017-08-26T19:53:23.859Z,99062
2017-08-26T19:55:31.829Z,99066
2017-08-26T19:57:37.391Z,99067
2017-08-26T19:59:46.289Z,99068
2017-08-26T20:01:54.133Z,99066
2017-08-26T20:04:02.953Z,99067
2017-08-26T20:06:08.692Z,99070
2017-08-26T20:08:15.280Z,99069
2017-08-26T20:10:26.483Z,99075
2017-08-26T20:12:35.271Z,99073
2017-08-26T20:14:42.540Z,99073
2017-08-26T20:17:01.889Z,99067
2017-08-26T20:19:07.865Z,99073
2017-08-26T20:21:14.684Z,99067
2017-08-26T20:23:21.400Z,99066
2017-08-26T20:25:28.206Z,99064
2017-08-26T20:28:12.304Z,99062
2017-08-26T20:30:18.042Z,99073
2017-08-26T20:32:25.000Z,99075
2017-08-26T20:34:34.159Z,99074
2017-08-26T20:36:42.102Z,99077
2017-08-26T20:38:49.668Z,99079
2017-08-26T20:40:58.793Z,99080
2017-08-26T20:43:05.756Z,99085
2017-08-26T20:45:12.184Z,99083
2017-08-26T20:47:19.898Z,99083
2017-08-26T20:49:25.726Z,99087
2017-08-26T20:51:38.969Z,99087
2017-08-26T20:54:08.940Z,99091
2017-08-26T20:56:24.258Z,99092
2017-08-26T20:58:52.037Z,99093
2017-08-26T21:01:20.597Z,99092
2017-08-26T21:03:45.381Z,99099
2017-08-26T21:06:05.389Z,99093
2017-08-26T21:08:14.470Z,99099
2017-08-26T21:10:22.066Z,99104
2017-08-26T21:12:37.605Z,99100
2017-08-26T21:14:58.982Z,99097
2017-08-26T21:17:19.390Z,99099
2017-08-26T21:19:29.048Z,99100
2017-08-26T21:21:58.840Z,99099
2017-08-26T21:24:05.227Z,99099
2017-08-26T21:26:11.184Z,99098
2017-08-26T21:28:17.055Z,99096
2017-08-26T21:30:22.778Z,99094
2017-08-26T21:32:29.185Z,99096
2017-08-26T21:34:35.216Z,99092
2017-08-26T21:36:44.574Z,99094
2017-08-26T21:38:52.274Z,99099
2017-08-26T21:40:59.028Z,99097
2017-08-26T21:43:04.902Z,99098
2017-08-26T21:45:11.241Z,99105
2017-08-26T21:47:17.866Z,99099
2017-08-26T21:49:23.720Z,99096
2017-08-26T21:51:30.455Z,99092
2017-08-26T21:53:37.216Z,99098
2017-08-26T21:55:45.816Z,99100
2017-08-26T21:57:54.361Z,99097
2017-08-26T22:00:02.395Z,99099
2017-08-26T22:02:08.673Z,99099
2017-08-26T22:04:15.854Z,99089
2017-08-26T22:06:21.954Z,99091
2017-08-26T22:08:27.952Z,99098
2017-08-26T22:10:34.646Z,99098
2017-08-26T22:12:42.683Z,99098
2017-08-26T22:14:51.017Z,99093
2017-08-26T22:17:01.587Z,99094
2017-08-26T22:19:07.316Z,99098
2017-08-26T22:21:13.269Z,99100
2017-08-26T22:23:19.964Z,99102
2017-08-26T22:25:26.032Z,99099
2017-08-26T22:27:32.790Z,99097
2017-08-26T22:29:38.884Z,99096
2017-08-26T22:31:47.261Z,99098
2017-08-26T22:33:54.431Z,99097
2017-08-26T22:36:01.161Z,99102
2017-08-26T22:38:06.831Z,99103
2017-08-26T22:40:12.741Z,99103
2017-08-26T22:42:18.778Z,99104
2017-08-26T22:44:25.065Z,99107
2017-08-26T22:46:30.839Z,99105
2017-08-26T22:49:40.258Z,99102
2017-08-26T22:51:47.795Z,99115
2017-08-26T22:53:56.256Z,99116
2017-08-26T22:56:05.554Z,99119
2017-08-26T22:58:11.144Z,99115
2017-08-26T23:00:17.672Z,99116
2017-08-26T23:02:23.575Z,99110
2017-08-26T23:04:46.954Z,99107
2017-08-26T23:06:53.922Z,99102
2017-08-26T23:08:59.910Z,99101
2017-08-26T23:11:05.890Z,99103
2017-08-26T23:13:11.936Z,99109
2017-08-26T23:15:18.271Z,99112
2017-08-26T23:17:24.513Z,99108
2017-08-26T23:19:30.403Z,99106
2017-08-26T23:21:38.996Z,99113
2017-08-26T23:23:47.402Z,99112
2017-08-26T23:25:54.522Z,99119
2017-08-26T23:28:01.074Z,99121
2017-08-26T23:30:07.401Z,99123
2017-08-26T23:32:13.616Z,99120
2017-08-26T23:34:19.390Z,99122
2017-08-26T23:36:25.328Z,99123
2017-08-26T23:38:31.538Z,99123
2017-08-26T23:40:40.554Z,99119
2017-08-26T23:42:49.239Z,99124
2017-08-26T23:44:57.307Z,99118
2017-08-26T23:47:04.864Z,99119
2017-08-26T23:49:10.507Z,99121
2017-08-26T23:51:17.173Z,99125
2017-08-26T23:53:23.255Z,99128
2017-08-26T23:55:28.926Z,99128
2017-08-26T23:57:36.364Z,99121
2017-08-26T23:59:44.187Z,99119
